sensor_id;sensor_type;location;lat;lon;timestamp;pressure;altitude;pressure_sealevel;temperature;humidity
58757;BME280;44527;47.460;19.016;2023-07-09T00:00:17;100719.88;;;18.82;75.46
58757;BME280;44527;47.460;19.016;2023-07-09T00:03:22;100717.50;;;18.89;75.17
58757;BME280;44527;47.460;19.016;2023-07-09T00:06:24;100714.44;;;18.83;75.17
58757;BME280;44527;47.460;19.016;2023-07-09T00:09:26;100720.03;;;18.71;76.03
58757;BME280;44527;47.460;19.016;2023-07-09T00:12:29;100723.94;;;18.67;76.36
58757;BME280;44527;47.460;19.016;2023-07-09T00:15:31;100729.03;;;18.50;77.25
58757;BME280;44527;47.460;19.016;2023-07-09T00:18:34;100719.56;;;18.38;78.27
58757;BME280;44527;47.460;19.016;2023-07-09T00:21:37;100731.44;;;18.34;78.34
58757;BME280;44527;47.460;19.016;2023-07-09T00:24:39;100722.91;;;18.30;78.67
58757;BME280;44527;47.460;19.016;2023-07-09T00:27:42;100721.53;;;18.17;79.09
58757;BME280;44527;47.460;19.016;2023-07-09T00:30:47;100729.78;;;18.13;79.21
58757;BME280;44527;47.460;19.016;2023-07-09T00:33:51;100726.56;;;18.10;79.32
58757;BME280;44527;47.460;19.016;2023-07-09T00:36:53;100726.97;;;18.05;79.65
58757;BME280;44527;47.460;19.016;2023-07-09T00:39:56;100722.78;;;18.03;79.79
58757;BME280;44527;47.460;19.016;2023-07-09T00:42:59;100721.53;;;18.07;79.33
58757;BME280;44527;47.460;19.016;2023-07-09T00:49:28;100729.22;;;18.29;78.16
58757;BME280;44527;47.460;19.016;2023-07-09T00:52:36;100719.41;;;18.30;77.71
58757;BME280;44527;47.460;19.016;2023-07-09T00:55:42;100731.87;;;18.10;78.42
58757;BME280;44527;47.460;19.016;2023-07-09T00:58:47;100726.16;;;17.95;79.20
58757;BME280;44527;47.460;19.016;2023-07-09T01:01:50;100724.87;;;17.99;78.73
58757;BME280;44527;47.460;19.016;2023-07-09T01:04:58;100716.91;;;17.99;78.50
58757;BME280;44527;47.460;19.016;2023-07-09T01:08:05;100722.13;;;17.91;79.03
58757;BME280;44527;47.460;19.016;2023-07-09T01:11:18;100721.53;;;17.87;79.23
58757;BME280;44527;47.460;19.016;2023-07-09T01:14:24;100721.25;;;17.90;79.28
58757;BME280;44527;47.460;19.016;2023-07-09T01:17:28;100721.81;;;18.04;78.02
58757;BME280;44527;47.460;19.016;2023-07-09T01:20:31;100710.94;;;17.97;78.20
58757;BME280;44527;47.460;19.016;2023-07-09T01:23:33;100719.31;;;17.83;79.22
58757;BME280;44527;47.460;19.016;2023-07-09T01:26:35;100712.81;;;17.66;80.48
58757;BME280;44527;47.460;19.016;2023-07-09T01:29:42;100719.94;;;17.65;80.93
58757;BME280;44527;47.460;19.016;2023-07-09T01:32:47;100725.97;;;17.67;81.07
58757;BME280;44527;47.460;19.016;2023-07-09T01:35:49;100718.00;;;17.67;81.34
58757;BME280;44527;47.460;19.016;2023-07-09T01:38:52;100723.97;;;17.60;81.82
58757;BME280;44527;47.460;19.016;2023-07-09T01:41:58;100719.81;;;17.57;82.04
58757;BME280;44527;47.460;19.016;2023-07-09T01:45:00;100732.91;;;17.49;82.43
58757;BME280;44527;47.460;19.016;2023-07-09T01:48:06;100727.63;;;17.49;82.41
58757;BME280;44527;47.460;19.016;2023-07-09T01:51:17;100727.91;;;17.56;81.70
58757;BME280;44527;47.460;19.016;2023-07-09T01:54:19;100733.66;;;17.61;81.59
58757;BME280;44527;47.460;19.016;2023-07-09T01:57:26;100736.44;;;17.69;80.61
58757;BME280;44527;47.460;19.016;2023-07-09T02:00:35;100742.16;;;17.64;80.47
58757;BME280;44527;47.460;19.016;2023-07-09T02:03:39;100737.84;;;17.73;80.06
58757;BME280;44527;47.460;19.016;2023-07-09T02:06:41;100744.66;;;17.66;80.49
58757;BME280;44527;47.460;19.016;2023-07-09T02:09:44;100744.25;;;17.61;81.35
58757;BME280;44527;47.460;19.016;2023-07-09T02:12:47;100745.63;;;17.55;81.54
58757;BME280;44527;47.460;19.016;2023-07-09T02:15:50;100748.00;;;17.49;81.84
58757;BME280;44527;47.460;19.016;2023-07-09T02:18:53;100753.59;;;17.45;82.06
58757;BME280;44527;47.460;19.016;2023-07-09T02:21:56;100759.63;;;17.57;81.34
58757;BME280;44527;47.460;19.016;2023-07-09T02:24:58;100752.59;;;17.46;81.53
58757;BME280;44527;47.460;19.016;2023-07-09T02:28:00;100759.16;;;17.42;81.80
58757;BME280;44527;47.460;19.016;2023-07-09T02:31:03;100762.09;;;17.49;80.92
58757;BME280;44527;47.460;19.016;2023-07-09T02:34:06;100762.22;;;17.48;80.66
58757;BME280;44527;47.460;19.016;2023-07-09T02:37:09;100752.56;;;17.37;81.05
58757;BME280;44527;47.460;19.016;2023-07-09T02:40:12;100748.44;;;17.13;82.29
58757;BME280;44527;47.460;19.016;2023-07-09T02:43:15;100751.06;;;17.04;82.97
58757;BME280;44527;47.460;19.016;2023-07-09T02:46:17;100751.63;;;17.07;82.51
58757;BME280;44527;47.460;19.016;2023-07-09T02:49:22;100754.50;;;17.25;81.57
58757;BME280;44527;47.460;19.016;2023-07-09T02:52:24;100748.47;;;17.23;81.80
58757;BME280;44527;47.460;19.016;2023-07-09T02:55:27;100749.72;;;17.19;81.93
58757;BME280;44527;47.460;19.016;2023-07-09T02:58:29;100750.94;;;17.05;82.78
58757;BME280;44527;47.460;19.016;2023-07-09T03:01:32;100747.38;;;16.95;83.59
58757;BME280;44527;47.460;19.016;2023-07-09T03:04:36;100752.94;;;16.92;84.00
58757;BME280;44527;47.460;19.016;2023-07-09T03:07:39;100754.84;;;16.80;84.54
58757;BME280;44527;47.460;19.016;2023-07-09T03:10:41;100762.72;;;16.70;85.28
58757;BME280;44527;47.460;19.016;2023-07-09T03:13:44;100759.56;;;16.55;85.88
58757;BME280;44527;47.460;19.016;2023-07-09T03:16:46;100758.28;;;16.50;86.43
58757;BME280;44527;47.460;19.016;2023-07-09T03:19:49;100762.13;;;16.67;85.65
58757;BME280;44527;47.460;19.016;2023-07-09T03:22:52;100760.59;;;16.85;84.33
58757;BME280;44527;47.460;19.016;2023-07-09T03:25:56;100776.28;;;16.98;83.09
58757;BME280;44527;47.460;19.016;2023-07-09T03:28:59;100777.38;;;16.95;82.61
58757;BME280;44527;47.460;19.016;2023-07-09T03:32:02;100770.72;;;17.01;82.61
58757;BME280;44527;47.460;19.016;2023-07-09T03:35:04;100768.53;;;17.06;82.86
58757;BME280;44527;47.460;19.016;2023-07-09T03:38:08;100768.00;;;17.12;82.23
58757;BME280;44527;47.460;19.016;2023-07-09T03:41:11;100778.06;;;17.18;82.12
58757;BME280;44527;47.460;19.016;2023-07-09T03:44:13;100772.19;;;17.15;82.46
58757;BME280;44527;47.460;19.016;2023-07-09T03:47:15;100776.53;;;17.26;82.11
58757;BME280;44527;47.460;19.016;2023-07-09T03:50:20;100783.44;;;17.38;81.59
58757;BME280;44527;47.460;19.016;2023-07-09T03:53:22;100775.28;;;17.60;80.70
58757;BME280;44527;47.460;19.016;2023-07-09T03:56:25;100777.66;;;17.63;80.57
58757;BME280;44527;47.460;19.016;2023-07-09T03:59:27;100771.84;;;17.79;79.86
58757;BME280;44527;47.460;19.016;2023-07-09T04:02:30;100774.78;;;17.86;79.80
58757;BME280;44527;47.460;19.016;2023-07-09T04:05:32;100775.78;;;17.85;80.12
58757;BME280;44527;47.460;19.016;2023-07-09T04:08:35;100772.25;;;17.84;79.46
58757;BME280;44527;47.460;19.016;2023-07-09T04:11:37;100773.25;;;17.83;78.88
58757;BME280;44527;47.460;19.016;2023-07-09T04:14:40;100779.00;;;17.98;77.65
58757;BME280;44527;47.460;19.016;2023-07-09T04:17:43;100775.66;;;18.25;75.30
58757;BME280;44527;47.460;19.016;2023-07-09T04:20:49;100773.38;;;18.59;73.15
58757;BME280;44527;47.460;19.016;2023-07-09T04:23:52;100770.22;;;18.93;71.16
58757;BME280;44527;47.460;19.016;2023-07-09T04:26:54;100773.50;;;19.15;70.69
58757;BME280;44527;47.460;19.016;2023-07-09T04:29:59;100773.72;;;19.31;70.33
58757;BME280;44527;47.460;19.016;2023-07-09T04:33:01;100778.47;;;19.00;71.29
58757;BME280;44527;47.460;19.016;2023-07-09T04:36:04;100763.13;;;19.21;71.35
58757;BME280;44527;47.460;19.016;2023-07-09T04:39:07;100767.97;;;19.36;70.02
58757;BME280;44527;47.460;19.016;2023-07-09T04:42:12;100778.50;;;19.55;68.85
58757;BME280;44527;47.460;19.016;2023-07-09T04:45:15;100773.41;;;20.25;66.60
58757;BME280;44527;47.460;19.016;2023-07-09T04:48:18;100784.91;;;22.39;58.68
58757;BME280;44527;47.460;19.016;2023-07-09T04:51:20;100782.94;;;24.91;50.55
58757;BME280;44527;47.460;19.016;2023-07-09T04:54:23;100788.50;;;26.71;45.56
58757;BME280;44527;47.460;19.016;2023-07-09T04:57:27;100796.28;;;28.58;41.17
58757;BME280;44527;47.460;19.016;2023-07-09T05:00:29;100798.00;;;30.71;36.46
58757;BME280;44527;47.460;19.016;2023-07-09T05:03:31;100794.94;;;30.85;35.95
58757;BME280;44527;47.460;19.016;2023-07-09T05:06:34;100803.50;;;31.44;34.82
58757;BME280;44527;47.460;19.016;2023-07-09T05:09:37;100797.97;;;32.53;33.20
58757;BME280;44527;47.460;19.016;2023-07-09T05:12:53;100810.56;;;33.30;31.74
58757;BME280;44527;47.460;19.016;2023-07-09T05:15:56;100796.66;;;32.56;32.96
58757;BME280;44527;47.460;19.016;2023-07-09T05:18:59;100804.00;;;32.67;33.14
58757;BME280;44527;47.460;19.016;2023-07-09T05:22:01;100805.47;;;33.33;32.09
58757;BME280;44527;47.460;19.016;2023-07-09T05:25:04;100801.59;;;34.15;30.93
58757;BME280;44527;47.460;19.016;2023-07-09T05:28:06;100808.09;;;34.60;30.29
58757;BME280;44527;47.460;19.016;2023-07-09T05:31:09;100809.09;;;35.31;28.58
58757;BME280;44527;47.460;19.016;2023-07-09T05:34:11;100806.69;;;35.84;28.21
58757;BME280;44527;47.460;19.016;2023-07-09T05:37:14;100804.81;;;35.40;28.43
58757;BME280;44527;47.460;19.016;2023-07-09T05:40:16;100809.69;;;35.82;27.73
58757;BME280;44527;47.460;19.016;2023-07-09T05:43:19;100809.84;;;35.98;27.16
58757;BME280;44527;47.460;19.016;2023-07-09T05:46:22;100812.47;;;36.15;27.05
58757;BME280;44527;47.460;19.016;2023-07-09T05:49:25;100804.53;;;36.50;26.64
58757;BME280;44527;47.460;19.016;2023-07-09T05:52:27;100812.03;;;36.01;27.99
58757;BME280;44527;47.460;19.016;2023-07-09T05:55:31;100811.00;;;37.14;26.46
58757;BME280;44527;47.460;19.016;2023-07-09T05:58:34;100817.94;;;36.89;26.47
58757;BME280;44527;47.460;19.016;2023-07-09T06:01:37;100809.66;;;36.04;27.05
58757;BME280;44527;47.460;19.016;2023-07-09T06:04:39;100812.97;;;36.81;26.82
58757;BME280;44527;47.460;19.016;2023-07-09T06:07:42;100810.53;;;36.47;26.87
58757;BME280;44527;47.460;19.016;2023-07-09T06:10:56;100818.19;;;37.35;25.80
58757;BME280;44527;47.460;19.016;2023-07-09T06:13:58;100816.16;;;37.05;26.89
58757;BME280;44527;47.460;19.016;2023-07-09T06:17:01;100814.78;;;38.78;24.93
58757;BME280;44527;47.460;19.016;2023-07-09T06:20:04;100818.12;;;38.13;25.44
58757;BME280;44527;47.460;19.016;2023-07-09T06:23:07;100819.47;;;38.11;25.59
58757;BME280;44527;47.460;19.016;2023-07-09T06:26:10;100813.97;;;37.85;26.22
58757;BME280;44527;47.460;19.016;2023-07-09T06:29:12;100819.47;;;38.26;26.25
58757;BME280;44527;47.460;19.016;2023-07-09T06:32:14;100823.28;;;38.92;25.69
58757;BME280;44527;47.460;19.016;2023-07-09T06:35:17;100825.81;;;39.97;24.47
58757;BME280;44527;47.460;19.016;2023-07-09T06:38:19;100815.56;;;40.42;23.67
58757;BME280;44527;47.460;19.016;2023-07-09T06:41:22;100810.59;;;40.74;23.41
58757;BME280;44527;47.460;19.016;2023-07-09T06:44:25;100817.84;;;40.64;22.90
58757;BME280;44527;47.460;19.016;2023-07-09T06:47:28;100816.28;;;39.85;24.41
58757;BME280;44527;47.460;19.016;2023-07-09T06:50:34;100811.13;;;40.17;23.68
58757;BME280;44527;47.460;19.016;2023-07-09T06:53:37;100814.62;;;39.89;23.72
58757;BME280;44527;47.460;19.016;2023-07-09T06:56:41;100810.72;;;40.87;21.51
58757;BME280;44527;47.460;19.016;2023-07-09T06:59:44;100815.41;;;40.58;22.14
58757;BME280;44527;47.460;19.016;2023-07-09T07:02:46;100804.53;;;40.96;21.38
58757;BME280;44527;47.460;19.016;2023-07-09T07:05:52;100809.84;;;41.35;20.53
58757;BME280;44527;47.460;19.016;2023-07-09T07:08:55;100809.16;;;41.86;20.04
58757;BME280;44527;47.460;19.016;2023-07-09T07:11:58;100814.41;;;41.88;19.87
58757;BME280;44527;47.460;19.016;2023-07-09T07:15:00;100816.41;;;42.15;19.77
58757;BME280;44527;47.460;19.016;2023-07-09T07:18:03;100810.00;;;42.19;19.38
58757;BME280;44527;47.460;19.016;2023-07-09T07:21:06;100811.75;;;42.29;19.09
58757;BME280;44527;47.460;19.016;2023-07-09T07:24:08;100811.50;;;42.12;19.46
58757;BME280;44527;47.460;19.016;2023-07-09T07:27:11;100811.03;;;42.23;19.20
58757;BME280;44527;47.460;19.016;2023-07-09T07:30:13;100805.53;;;42.98;17.99
58757;BME280;44527;47.460;19.016;2023-07-09T07:33:16;100810.66;;;43.04;17.70
58757;BME280;44527;47.460;19.016;2023-07-09T07:36:18;100807.19;;;43.26;17.50
58757;BME280;44527;47.460;19.016;2023-07-09T07:39:32;100806.25;;;42.76;17.57
58757;BME280;44527;47.460;19.016;2023-07-09T07:42:34;100809.84;;;43.18;17.66
58757;BME280;44527;47.460;19.016;2023-07-09T07:45:40;100810.25;;;43.11;17.54
58757;BME280;44527;47.460;19.016;2023-07-09T07:48:43;100803.37;;;42.95;17.16
58757;BME280;44527;47.460;19.016;2023-07-09T07:51:45;100801.72;;;42.19;17.71
58757;BME280;44527;47.460;19.016;2023-07-09T07:54:48;100801.50;;;41.64;18.54
58757;BME280;44527;47.460;19.016;2023-07-09T07:57:50;100802.13;;;41.37;18.77
58757;BME280;44527;47.460;19.016;2023-07-09T08:01:02;100809.22;;;41.81;18.54
58757;BME280;44527;47.460;19.016;2023-07-09T08:04:05;100803.66;;;41.67;17.85
58757;BME280;44527;47.460;19.016;2023-07-09T08:07:09;100802.94;;;40.41;18.60
58757;BME280;44527;47.460;19.016;2023-07-09T08:10:12;100803.00;;;40.31;18.42
58757;BME280;44527;47.460;19.016;2023-07-09T08:13:15;100806.72;;;39.72;19.33
58757;BME280;44527;47.460;19.016;2023-07-09T08:16:17;100791.16;;;38.97;20.59
58757;BME280;44527;47.460;19.016;2023-07-09T08:19:20;100796.72;;;38.56;20.87
58757;BME280;44527;47.460;19.016;2023-07-09T08:22:23;100793.47;;;37.93;21.39
58757;BME280;44527;47.460;19.016;2023-07-09T08:25:25;100797.13;;;37.36;21.66
58757;BME280;44527;47.460;19.016;2023-07-09T08:28:28;100799.50;;;37.17;22.19
58757;BME280;44527;47.460;19.016;2023-07-09T08:31:31;100796.44;;;37.03;21.52
58757;BME280;44527;47.460;19.016;2023-07-09T08:34:34;100796.84;;;36.85;21.72
58757;BME280;44527;47.460;19.016;2023-07-09T08:37:36;100794.03;;;36.32;21.41
58757;BME280;44527;47.460;19.016;2023-07-09T08:40:40;100789.78;;;35.87;23.24
58757;BME280;44527;47.460;19.016;2023-07-09T08:47:07;100786.59;;;35.46;23.29
58757;BME280;44527;47.460;19.016;2023-07-09T08:50:19;100789.03;;;35.42;23.17
58757;BME280;44527;47.460;19.016;2023-07-09T08:54:04;100786.63;;;34.85;22.09
58757;BME280;44527;47.460;19.016;2023-07-09T08:57:19;100781.19;;;34.85;22.05
58757;BME280;44527;47.460;19.016;2023-07-09T09:00:37;100786.44;;;34.53;23.81
58757;BME280;44527;47.460;19.016;2023-07-09T09:03:53;100789.84;;;34.60;23.38
58757;BME280;44527;47.460;19.016;2023-07-09T09:07:17;100785.13;;;34.56;23.74
58757;BME280;44527;47.460;19.016;2023-07-09T09:13:35;100789.31;;;34.46;22.27
58757;BME280;44527;47.460;19.016;2023-07-09T09:16:39;100784.34;;;34.43;23.57
58757;BME280;44527;47.460;19.016;2023-07-09T09:19:48;100783.06;;;34.29;23.42
58757;BME280;44527;47.460;19.016;2023-07-09T09:23:10;100783.38;;;34.33;24.05
58757;BME280;44527;47.460;19.016;2023-07-09T09:26:34;100782.47;;;34.44;24.65
58757;BME280;44527;47.460;19.016;2023-07-09T09:29:37;100780.00;;;34.08;24.88
58757;BME280;44527;47.460;19.016;2023-07-09T09:32:43;100780.56;;;34.11;25.38
58757;BME280;44527;47.460;19.016;2023-07-09T09:35:46;100778.25;;;34.36;25.75
58757;BME280;44527;47.460;19.016;2023-07-09T09:38:52;100782.03;;;34.52;24.98
58757;BME280;44527;47.460;19.016;2023-07-09T09:41:57;100774.88;;;34.63;25.05
58757;BME280;44527;47.460;19.016;2023-07-09T09:45:00;100786.44;;;34.92;23.23
58757;BME280;44527;47.460;19.016;2023-07-09T09:48:13;100779.47;;;34.45;25.12
58757;BME280;44527;47.460;19.016;2023-07-09T09:51:17;100779.75;;;34.10;24.26
58757;BME280;44527;47.460;19.016;2023-07-09T09:54:26;100774.34;;;33.53;25.09
58757;BME280;44527;47.460;19.016;2023-07-09T09:57:29;100774.38;;;33.29;24.41
58757;BME280;44527;47.460;19.016;2023-07-09T10:00:31;100769.09;;;33.23;23.89
58757;BME280;44527;47.460;19.016;2023-07-09T10:03:37;100759.78;;;33.47;25.58
58757;BME280;44527;47.460;19.016;2023-07-09T10:06:52;100772.59;;;33.35;25.51
58757;BME280;44527;47.460;19.016;2023-07-09T10:09:58;100772.44;;;33.01;24.82
58757;BME280;44527;47.460;19.016;2023-07-09T10:13:25;100768.75;;;32.95;25.14
58757;BME280;44527;47.460;19.016;2023-07-09T10:16:34;100757.44;;;32.99;25.58
58757;BME280;44527;47.460;19.016;2023-07-09T10:19:47;100760.09;;;33.22;26.53
58757;BME280;44527;47.460;19.016;2023-07-09T10:26:15;100759.09;;;33.40;25.77
58757;BME280;44527;47.460;19.016;2023-07-09T10:36:47;100759.91;;;33.52;26.42
58757;BME280;44527;47.460;19.016;2023-07-09T10:39:55;100758.78;;;33.82;25.16
58757;BME280;44527;47.460;19.016;2023-07-09T10:43:00;100752.03;;;33.84;24.63
58757;BME280;44527;47.460;19.016;2023-07-09T10:46:22;100752.56;;;33.41;24.28
58757;BME280;44527;47.460;19.016;2023-07-09T10:49:33;100754.63;;;33.34;23.97
58757;BME280;44527;47.460;19.016;2023-07-09T10:52:42;100747.66;;;33.26;23.73
58757;BME280;44527;47.460;19.016;2023-07-09T10:55:53;100752.16;;;33.61;24.55
58757;BME280;44527;47.460;19.016;2023-07-09T10:59:14;100748.03;;;33.58;25.51
58757;BME280;44527;47.460;19.016;2023-07-09T11:02:30;100738.41;;;33.68;25.33
58757;BME280;44527;47.460;19.016;2023-07-09T11:05:34;100754.00;;;33.72;24.40
58757;BME280;44527;47.460;19.016;2023-07-09T11:08:40;100747.19;;;33.29;24.27
58757;BME280;44527;47.460;19.016;2023-07-09T11:11:48;100747.50;;;33.04;24.97
58757;BME280;44527;47.460;19.016;2023-07-09T11:15:05;100742.25;;;33.14;25.69
58757;BME280;44527;47.460;19.016;2023-07-09T11:18:19;100738.41;;;33.27;25.64
58757;BME280;44527;47.460;19.016;2023-07-09T11:21:22;100732.78;;;33.57;25.75
58757;BME280;44527;47.460;19.016;2023-07-09T11:24:35;100735.34;;;33.64;26.56
58757;BME280;44527;47.460;19.016;2023-07-09T11:27:49;100732.53;;;34.04;25.62
58757;BME280;44527;47.460;19.016;2023-07-09T11:30:54;100726.06;;;33.77;24.84
58757;BME280;44527;47.460;19.016;2023-07-09T11:37:15;100723.41;;;32.72;25.96
58757;BME280;44527;47.460;19.016;2023-07-09T11:40:18;100729.94;;;32.48;26.65
58757;BME280;44527;47.460;19.016;2023-07-09T11:43:33;100728.72;;;32.91;25.94
58757;BME280;44527;47.460;19.016;2023-07-09T11:46:43;100727.25;;;33.52;25.77
58757;BME280;44527;47.460;19.016;2023-07-09T11:50:02;100717.75;;;33.55;24.23
58757;BME280;44527;47.460;19.016;2023-07-09T11:56:25;100715.28;;;33.25;26.17
58757;BME280;44527;47.460;19.016;2023-07-09T11:59:28;100717.25;;;33.29;24.84
58757;BME280;44527;47.460;19.016;2023-07-09T12:02:33;100721.56;;;33.42;25.46
58757;BME280;44527;47.460;19.016;2023-07-09T12:05:37;100712.84;;;33.40;24.41
58757;BME280;44527;47.460;19.016;2023-07-09T12:08:41;100704.50;;;33.18;24.50
58757;BME280;44527;47.460;19.016;2023-07-09T12:11:46;100703.00;;;33.39;24.10
58757;BME280;44527;47.460;19.016;2023-07-09T12:14:49;100704.34;;;32.84;25.08
58757;BME280;44527;47.460;19.016;2023-07-09T12:17:58;100699.06;;;32.66;25.81
58757;BME280;44527;47.460;19.016;2023-07-09T12:21:01;100700.59;;;32.85;24.83
58757;BME280;44527;47.460;19.016;2023-07-09T12:24:17;100701.03;;;32.94;24.79
58757;BME280;44527;47.460;19.016;2023-07-09T12:27:24;100697.84;;;33.37;25.29
58757;BME280;44527;47.460;19.016;2023-07-09T12:30:32;100685.75;;;33.33;25.08
58757;BME280;44527;47.460;19.016;2023-07-09T12:33:34;100687.19;;;33.36;25.14
58757;BME280;44527;47.460;19.016;2023-07-09T12:36:38;100676.00;;;33.21;24.98
58757;BME280;44527;47.460;19.016;2023-07-09T12:39:43;100678.66;;;33.61;25.24
58757;BME280;44527;47.460;19.016;2023-07-09T12:42:47;100678.59;;;33.56;24.99
58757;BME280;44527;47.460;19.016;2023-07-09T12:45:50;100678.66;;;33.61;24.96
58757;BME280;44527;47.460;19.016;2023-07-09T12:48:54;100676.12;;;33.54;25.22
58757;BME280;44527;47.460;19.016;2023-07-09T12:51:58;100672.34;;;33.55;25.05
58757;BME280;44527;47.460;19.016;2023-07-09T12:55:02;100669.88;;;33.71;25.40
58757;BME280;44527;47.460;19.016;2023-07-09T12:58:09;100671.69;;;33.82;25.10
58757;BME280;44527;47.460;19.016;2023-07-09T13:01:16;100663.69;;;33.75;25.26
58757;BME280;44527;47.460;19.016;2023-07-09T13:04:19;100675.09;;;33.44;24.60
58757;BME280;44527;47.460;19.016;2023-07-09T13:10:30;100659.94;;;32.79;24.87
58757;BME280;44527;47.460;19.016;2023-07-09T13:13:33;100657.44;;;32.89;24.54
58757;BME280;44527;47.460;19.016;2023-07-09T13:16:39;100655.03;;;32.28;25.20
58757;BME280;44527;47.460;19.016;2023-07-09T13:19:47;100646.06;;;32.16;25.95
58757;BME280;44527;47.460;19.016;2023-07-09T13:22:50;100642.19;;;32.24;25.63
58757;BME280;44527;47.460;19.016;2023-07-09T13:25:54;100652.53;;;32.50;26.46
58757;BME280;44527;47.460;19.016;2023-07-09T13:28:58;100648.34;;;32.83;26.71
58757;BME280;44527;47.460;19.016;2023-07-09T13:32:01;100646.16;;;33.09;25.92
58757;BME280;44527;47.460;19.016;2023-07-09T13:35:13;100636.41;;;33.41;25.44
58757;BME280;44527;47.460;19.016;2023-07-09T13:38:18;100641.63;;;33.43;25.35
58757;BME280;44527;47.460;19.016;2023-07-09T13:41:21;100630.06;;;33.36;25.50
58757;BME280;44527;47.460;19.016;2023-07-09T13:44:27;100640.87;;;33.48;24.94
58757;BME280;44527;47.460;19.016;2023-07-09T13:47:30;100640.22;;;33.40;25.15
58757;BME280;44527;47.460;19.016;2023-07-09T13:50:35;100644.53;;;33.53;25.18
58757;BME280;44527;47.460;19.016;2023-07-09T13:53:38;100639.59;;;33.50;25.63
58757;BME280;44527;47.460;19.016;2023-07-09T13:56:40;100629.97;;;33.31;24.87
58757;BME280;44527;47.460;19.016;2023-07-09T13:59:43;100636.13;;;33.26;25.31
58757;BME280;44527;47.460;19.016;2023-07-09T14:02:46;100643.09;;;33.05;25.30
58757;BME280;44527;47.460;19.016;2023-07-09T14:05:49;100636.16;;;32.98;25.97
58757;BME280;44527;47.460;19.016;2023-07-09T14:08:52;100638.41;;;33.01;26.06
58757;BME280;44527;47.460;19.016;2023-07-09T14:11:54;100635.41;;;33.02;25.41
58757;BME280;44527;47.460;19.016;2023-07-09T14:14:58;100630.00;;;32.90;26.28
58757;BME280;44527;47.460;19.016;2023-07-09T14:18:01;100625.28;;;32.86;25.42
58757;BME280;44527;47.460;19.016;2023-07-09T14:21:17;100626.28;;;32.68;25.97
58757;BME280;44527;47.460;19.016;2023-07-09T14:24:23;100626.91;;;32.58;26.29
58757;BME280;44527;47.460;19.016;2023-07-09T14:27:26;100637.78;;;32.46;25.97
58757;BME280;44527;47.460;19.016;2023-07-09T14:30:29;100624.69;;;32.55;25.33
58757;BME280;44527;47.460;19.016;2023-07-09T14:33:31;100622.78;;;32.56;25.92
58757;BME280;44527;47.460;19.016;2023-07-09T14:36:34;100623.37;;;32.58;24.83
58757;BME280;44527;47.460;19.016;2023-07-09T14:39:36;100624.78;;;32.37;24.82
58757;BME280;44527;47.460;19.016;2023-07-09T14:42:39;100622.91;;;32.61;24.97
58757;BME280;44527;47.460;19.016;2023-07-09T14:45:42;100619.72;;;32.52;26.09
58757;BME280;44527;47.460;19.016;2023-07-09T14:48:45;100625.59;;;32.72;25.48
58757;BME280;44527;47.460;19.016;2023-07-09T14:51:49;100622.75;;;32.67;25.82
58757;BME280;44527;47.460;19.016;2023-07-09T14:54:52;100622.28;;;32.70;25.45
58757;BME280;44527;47.460;19.016;2023-07-09T14:57:55;100625.00;;;32.59;25.53
58757;BME280;44527;47.460;19.016;2023-07-09T15:00:57;100611.31;;;32.54;25.79
58757;BME280;44527;47.460;19.016;2023-07-09T15:04:14;100609.94;;;32.51;25.82
58757;BME280;44527;47.460;19.016;2023-07-09T15:07:25;100604.62;;;32.33;25.66
58757;BME280;44527;47.460;19.016;2023-07-09T15:10:31;100611.84;;;32.15;26.12
58757;BME280;44527;47.460;19.016;2023-07-09T15:13:35;100607.69;;;32.01;25.70
58757;BME280;44527;47.460;19.016;2023-07-09T15:16:38;100602.66;;;31.93;26.14
58757;BME280;44527;47.460;19.016;2023-07-09T15:19:42;100596.44;;;31.86;26.24
58757;BME280;44527;47.460;19.016;2023-07-09T15:22:45;100599.75;;;31.76;26.40
58757;BME280;44527;47.460;19.016;2023-07-09T15:25:49;100602.81;;;31.68;26.65
58757;BME280;44527;47.460;19.016;2023-07-09T15:28:53;100609.16;;;31.62;26.94
58757;BME280;44527;47.460;19.016;2023-07-09T15:31:55;100599.03;;;31.57;26.70
58757;BME280;44527;47.460;19.016;2023-07-09T15:34:57;100597.72;;;31.48;26.15
58757;BME280;44527;47.460;19.016;2023-07-09T15:38:02;100602.84;;;31.26;27.21
58757;BME280;44527;47.460;19.016;2023-07-09T15:41:13;100599.72;;;31.10;27.34
58757;BME280;44527;47.460;19.016;2023-07-09T15:44:17;100598.16;;;31.03;27.89
58757;BME280;44527;47.460;19.016;2023-07-09T15:47:26;100593.91;;;30.95;27.95
58757;BME280;44527;47.460;19.016;2023-07-09T15:50:32;100594.25;;;30.99;27.65
58757;BME280;44527;47.460;19.016;2023-07-09T15:53:36;100600.81;;;30.91;28.06
58757;BME280;44527;47.460;19.016;2023-07-09T15:56:41;100595.94;;;30.81;28.45
58757;BME280;44527;47.460;19.016;2023-07-09T15:59:43;100595.34;;;30.79;27.98
58757;BME280;44527;47.460;19.016;2023-07-09T16:02:47;100589.16;;;30.72;28.01
58757;BME280;44527;47.460;19.016;2023-07-09T16:05:51;100586.28;;;30.67;28.73
58757;BME280;44527;47.460;19.016;2023-07-09T16:08:53;100591.34;;;30.63;29.25
58757;BME280;44527;47.460;19.016;2023-07-09T16:11:56;100583.00;;;30.65;29.41
58757;BME280;44527;47.460;19.016;2023-07-09T16:14:58;100588.09;;;30.55;29.71
58757;BME280;44527;47.460;19.016;2023-07-09T16:18:00;100586.00;;;30.57;29.72
58757;BME280;44527;47.460;19.016;2023-07-09T16:21:03;100585.84;;;30.52;29.48
58757;BME280;44527;47.460;19.016;2023-07-09T16:24:16;100585.94;;;30.45;29.28